^^
Datos históricos de la estación: Murcia-Puente Tocinos
Diario Informe para Agosto 14, 2022 Unidades:  Métrico    Ingés   Ambas
Diario Semanal Mensual Anual
  Máxima: Mínima: Promedio:
Temperatura: 38.9 °C 25.2 °C 30.9 °C
Punto de rocio: 21.7 °C 14 °C 16.7 °C
Humedad: 63.3% 24% 44%
Velocidad viento: 14km/h 0km/h 6.6km/h
Racha viento: 25.9km/h - -
Viento- - Sur
Presión: 1013.0 hPa 1003.8 hPa -
Precipitación: 0.0 mm    
 
 
Tabla de datos para Agosto 14, 2022
Hora Temperatura Punto de rocio Presión Viento Velocidad viento Racha viento Humedad Intensidad lluvia(por hora) Nubes
00:04 28.7 °C 15.6 °C 1013.0 hPa SO 10 km/h 14.8 km/h 45% 0.0 mm
00:09 28.7 °C 15.6 °C 1013.0 hPa SSO 10 km/h 13.7 km/h 45% 0.0 mm
00:14 28.6 °C 15.5 °C 1013.0 hPa SSO 8.2 km/h 13 km/h 45% 0.0 mm
00:19 28.6 °C 15.5 °C 1012.5 hPa SO 7.6 km/h 11.9 km/h 45% 0.0 mm
00:24 28.6 °C 15.5 °C 1012.5 hPa SSO 7.1 km/h 11.1 km/h 45% 0.0 mm
00:29 28.6 °C 15.5 °C 1012.5 hPa Sur 6.9 km/h 11.1 km/h 45% 0.0 mm
00:34 28.6 °C 15.5 °C 1012.1 hPa SSO 6.9 km/h 11.1 km/h 45% 0.0 mm
00:39 28.5 °C 15.4 °C 1012.1 hPa SSO 6.9 km/h 13 km/h 45% 0.0 mm
00:44 28.4 °C 15.3 °C 1012.1 hPa SSO 7.9 km/h 13.7 km/h 45% 0.0 mm
00:49 28.3 °C 15.3 °C 1011.7 hPa SSO 8.4 km/h 13.7 km/h 45.2% 0.0 mm
00:54 28.3 °C 15.3 °C 1011.7 hPa SSO 8.6 km/h 14.8 km/h 45.2% 0.0 mm
00:59 28.4 °C 15.3 °C 1011.7 hPa SSO 8.7 km/h 14.8 km/h 45% 0.0 mm
01:04 28.4 °C 15.3 °C 1011.5 hPa SSO 8.5 km/h 17.2 km/h 45% 0.0 mm
01:09 28.5 °C 15.3 °C 1011.5 hPa SSO 8.4 km/h 15.6 km/h 44.6% 0.0 mm
01:14 28.6 °C 15.2 °C 1011.5 hPa SO 9.7 km/h 16.7 km/h 44% 0.0 mm
01:19 28.6 °C 15.2 °C 1011.2 hPa SO 10.3 km/h 14.8 km/h 44% 0.0 mm
01:24 28.6 °C 15.2 °C 1011.2 hPa SO 8.9 km/h 13 km/h 44% 0.0 mm
01:29 28.6 °C 15.1 °C 1011.2 hPa SO 8.4 km/h 14.8 km/h 44% 0.0 mm
01:34 28.5 °C 15 °C 1011.2 hPa SO 7.8 km/h 13 km/h 44% 0.0 mm
01:39 28.4 °C 15.3 °C 1011.2 hPa SO 7.6 km/h 13 km/h 44.9% 0.0 mm
01:44 28.3 °C 15.3 °C 1011.2 hPa SSO 7.1 km/h 13 km/h 45% 0.0 mm
01:49 28.3 °C 15.2 °C 1011.2 hPa SO 6.9 km/h 11.1 km/h 45% 0.0 mm
01:54 28.3 °C 15.2 °C 1011.2 hPa SO 7.4 km/h 13 km/h 45% 0.0 mm
01:59 28.3 °C 15.2 °C 1011.2 hPa SO 7.6 km/h 11.1 km/h 45% 0.0 mm
02:04 28.3 °C 15.2 °C 1011.1 hPa SO 7.1 km/h 13.7 km/h 45% 0.0 mm
02:09 28.2 °C 15.2 °C 1011.1 hPa SO 6.9 km/h 13.7 km/h 45% 0.0 mm
02:14 28.2 °C 15.2 °C 1011.1 hPa SO 7.4 km/h 10.3 km/h 45% 0.0 mm
02:19 28.2 °C 15.2 °C 1011.1 hPa SO 7.6 km/h 11.9 km/h 45% 0.0 mm
02:24 28.1 °C 15.1 °C 1011.1 hPa SO 6.8 km/h 11.9 km/h 45% 0.0 mm
02:29 28.1 °C 15.1 °C 1011.1 hPa SO 6.4 km/h 14.8 km/h 45% 0.0 mm
02:34 28.1 °C 15.1 °C 1011.0 hPa SO 6.8 km/h 12.2 km/h 45% 0.0 mm
02:39 28 °C 15 °C 1011.0 hPa SO 6.9 km/h 13 km/h 45% 0.0 mm
02:44 27.9 °C 14.9 °C 1011.0 hPa SO 7.3 km/h 13 km/h 45% 0.0 mm
02:49 27.8 °C 15.1 °C 1010.8 hPa SO 7.6 km/h 11.9 km/h 45.9% 0.0 mm
02:54 27.8 °C 15.1 °C 1010.8 hPa SO 7.6 km/h 13.7 km/h 46% 0.0 mm
02:59 27.8 °C 15.1 °C 1010.8 hPa SO 7.6 km/h 14.8 km/h 46% 0.0 mm
03:04 27.7 °C 15.1 °C 1010.7 hPa SO 8.4 km/h 13 km/h 46% 0.0 mm
03:09 27.7 °C 15 °C 1010.7 hPa OSO 8.7 km/h 13 km/h 46% 0.0 mm
03:14 27.6 °C 15 °C 1010.7 hPa Oeste 7.4 km/h 11.1 km/h 46% 0.0 mm
03:19 27.5 °C 15.1 °C 1010.6 hPa Oeste 6.9 km/h 9.5 km/h 46.8% 0.0 mm
03:24 27.3 °C 15 °C 1010.6 hPa Oeste 6.6 km/h 11.1 km/h 47% 0.0 mm
03:29 27.2 °C 15.2 °C 1010.6 hPa ONO 6.4 km/h 11.1 km/h 47.9% 0.0 mm
03:34 27 °C 15.1 °C 1010.5 hPa Oeste 6.4 km/h 11.1 km/h 48.1% 0.0 mm
03:39 26.8 °C 15.2 °C 1010.5 hPa Oeste 6.4 km/h 11.1 km/h 49% 0.0 mm
03:44 26.8 °C 15.4 °C 1010.5 hPa Oeste 6 km/h 9.5 km/h 49.9% 0.0 mm
03:49 26.7 °C 15.5 °C 1010.3 hPa Oeste 5.8 km/h 8.4 km/h 50.4% 0.0 mm
03:54 26.6 °C 15.6 °C 1010.3 hPa Oeste 5.2 km/h 7.6 km/h 51% 0.0 mm
03:59 26.4 °C 15.5 °C 1010.3 hPa Oeste 5 km/h 10 km/h 51.1% 0.0 mm
04:04 26.4 °C 15.8 °C 1010.3 hPa OSO 4.8 km/h 9.3 km/h 52% 0.0 mm
04:09 26.4 °C 15.8 °C 1010.3 hPa SO 4.7 km/h 5.8 km/h 52% 0.0 mm
04:14 26.4 °C 15.6 °C 1010.4 hPa OSO 3.7 km/h 7.4 km/h 51.4% 0.0 mm
04:19 26.4 °C 15.5 °C 1010.4 hPa OSO 3.2 km/h 7.4 km/h 51.1% 0.0 mm
04:24 26.5 °C 15.5 °C 1010.4 hPa SO 3.7 km/h 7.4 km/h 51% 0.0 mm
04:29 26.5 °C 15.6 °C 1010.4 hPa SO 3.9 km/h 5.8 km/h 51% 0.0 mm
04:34 26.5 °C 15.6 °C 1010.3 hPa SO 3.2 km/h 6.9 km/h 51% 0.0 mm
04:39 26.4 °C 15.9 °C 1010.3 hPa SSE 2.9 km/h 7.4 km/h 52.2% 0.0 mm
04:44 26.4 °C 16 °C 1010.3 hPa SSE 3.6 km/h 9.3 km/h 53% 0.0 mm
04:49 26.3 °C 15.9 °C 1010.0 hPa Sur 3.9 km/h 10 km/h 53% 0.0 mm
04:54 26.2 °C 15.9 °C 1010.0 hPa SSE 5.2 km/h 10.3 km/h 53% 0.0 mm
04:59 26.2 °C 15.9 °C 1010.0 hPa SE 5.8 km/h 11.1 km/h 53% 0.0 mm
05:04 26.2 °C 15.9 °C 1009.7 hPa SSE 6.6 km/h 11.1 km/h 53% 0.0 mm
05:09 26.2 °C 15.9 °C 1009.7 hPa Sur 6.9 km/h 9.5 km/h 53% 0.0 mm
05:14 26.2 °C 15.9 °C 1009.7 hPa SSO 6.9 km/h 10 km/h 53% 0.0 mm
05:19 26.2 °C 15.9 °C 1009.7 hPa SO 6.9 km/h 10 km/h 53% 0.0 mm
05:24 26.2 °C 15.9 °C 1009.7 hPa SO 6.1 km/h 7.6 km/h 53% 0.0 mm
05:29 26.2 °C 15.9 °C 1009.7 hPa OSO 5.8 km/h 5.6 km/h 53% 0.0 mm
05:34 26.3 °C 15.7 °C 1009.5 hPa SO 3.8 km/h 7.6 km/h 52.2% 0.0 mm
05:39 26.3 °C 15.7 °C 1009.5 hPa SO 2.9 km/h 7.6 km/h 52% 0.0 mm
05:44 26.3 °C 15.7 °C 1009.5 hPa OSO 3.6 km/h 7.4 km/h 52% 0.0 mm
05:49 26.3 °C 15.7 °C 1009.5 hPa OSO 3.9 km/h 8.4 km/h 52% 0.0 mm
05:54 26.3 °C 15.7 °C 1009.5 hPa OSO 4.4 km/h 7.4 km/h 52% 0.0 mm
05:59 26.3 °C 15.7 °C 1009.5 hPa SSO 4.7 km/h 7.4 km/h 52% 0.0 mm
06:04 26.3 °C 15.6 °C 1009.2 hPa OSO 4.7 km/h 7.4 km/h 52% 0.0 mm
06:09 26.3 °C 15.7 °C 1009.2 hPa Oeste 4.7 km/h 5.8 km/h 52% 0.0 mm
06:14 26.3 °C 16 °C 1009.2 hPa SE 3.6 km/h 7.4 km/h 53.4% 0.0 mm
06:19 26.2 °C 16.3 °C 1009.1 hPa ESE 3.2 km/h 4.7 km/h 54.6% 0.0 mm
06:24 26 °C 16.4 °C 1009.1 hPa ESE 3 km/h 4.7 km/h 55.3% 0.0 mm
06:29 25.8 °C 16.4 °C 1009.1 hPa ESE 2.9 km/h 4.7 km/h 56% 0.0 mm
06:34 25.8 °C 16.4 °C 1009.0 hPa Este 2.5 km/h 5.8 km/h 56.3% 0.0 mm
06:39 25.6 °C 16.5 °C 1009.0 hPa ESE 2.3 km/h 7.4 km/h 57.4% 0.0 mm
06:44 25.4 °C 16.6 °C 1009.0 hPa SE 3.4 km/h 7.4 km/h 58% 0.0 mm
06:49 25.3 °C 16.5 °C 1008.9 hPa SE 3.9 km/h 5.8 km/h 58.2% 0.0 mm
06:54 25.3 °C 16.7 °C 1008.9 hPa SE 3.4 km/h 7.4 km/h 58.9% 0.0 mm
06:59 25.3 °C 16.5 °C 1008.9 hPa Sur 3.2 km/h 7.4 km/h 58.2% 0.0 mm
07:04 25.3 °C 16.4 °C 1008.9 hPa SSE 3.7 km/h 7.6 km/h 58% 0.0 mm
07:09 25.3 °C 16.4 °C 1008.9 hPa SSE 3.9 km/h 7.4 km/h 58% 0.0 mm
07:14 25.2 °C 16.4 °C 1008.9 hPa Sur 4.4 km/h 7.6 km/h 58% 0.0 mm
07:19 25.2 °C 16.4 °C 1008.7 hPa Sur 4.7 km/h 7.4 km/h 58.1% 0.0 mm
07:24 25.3 °C 16.4 °C 1008.7 hPa Sur 4.7 km/h 8.4 km/h 58% 0.0 mm
07:29 25.3 °C 16.4 °C 1008.8 hPa SSO 4.7 km/h 7.6 km/h 58% 0.0 mm
07:34 25.4 °C 16.4 °C 1008.8 hPa SSO 4.9 km/h 8.4 km/h 57.5% 0.0 mm
07:39 25.4 °C 16.3 °C 1008.8 hPa Sur 5 km/h 9.3 km/h 57.1% 0.0 mm
07:44 25.4 °C 16.5 °C 1008.8 hPa Sur 5.5 km/h 8.4 km/h 57.7% 0.0 mm
07:49 25.3 °C 16.3 °C 1008.8 hPa SSO 5.8 km/h 7.6 km/h 57.6% 0.0 mm
07:54 25.3 °C 16.3 °C 1008.8 hPa SO 5.3 km/h 10 km/h 57.4% 0.0 mm
07:59 25.3 °C 16.2 °C 1008.9 hPa SSO 5 km/h 8.4 km/h 57% 0.0 mm
08:04 25.3 °C 16.2 °C 1008.9 hPa SO 5.6 km/h 9.5 km/h 57% 0.0 mm
08:09 25.4 °C 16.1 °C 1008.9 hPa SO 5.8 km/h 9.5 km/h 56.3% 0.0 mm
08:14 25.5 °C 16.1 °C 1009.0 hPa SO 5.2 km/h 9.3 km/h 56% 0.0 mm
08:19 25.6 °C 16.2 °C 1009.0 hPa SSO 5 km/h 7.4 km/h 56% 0.0 mm
08:24 25.6 °C 16 °C 1009.0 hPa SO 5 km/h 9.5 km/h 55.5% 0.0 mm
08:29 25.7 °C 16 °C 1009.1 hPa SSO 5 km/h 11.1 km/h 55% 0.0 mm
08:34 25.6 °C 15.8 °C 1009.1 hPa SSO 6 km/h 11.1 km/h 54.5% 0.0 mm
08:39 25.6 °C 15.7 °C 1009.1 hPa Sur 6.4 km/h 9.5 km/h 54.3% 0.0 mm
08:44 25.7 °C 15.7 °C 1009.2 hPa SO 6.4 km/h 11.1 km/h 54.2% 0.0 mm
08:49 25.8 °C 15.8 °C 1009.2 hPa SSO 6.4 km/h 9.3 km/h 54.3% 0.0 mm
08:54 25.8 °C 15.8 °C 1009.2 hPa SSO 5.4 km/h 9.5 km/h 54.1% 0.0 mm
08:59 25.9 °C 15.9 °C 1009.2 hPa SSO 5 km/h 11.1 km/h 54% 0.0 mm
09:04 25.8 °C 15.8 °C 1009.2 hPa SSO 6 km/h 11.1 km/h 53.8% 0.0 mm
09:09 25.8 °C 15.6 °C 1009.2 hPa SSO 6.4 km/h 13 km/h 53.3% 0.0 mm
09:14 25.8 °C 15.7 °C 1009.2 hPa SSO 7.8 km/h 13.7 km/h 54% 0.0 mm
09:19 25.8 °C 15.8 °C 1009.1 hPa SO 8.4 km/h 11.9 km/h 54% 0.0 mm
09:24 25.9 °C 15.9 °C 1009.1 hPa SSO 7.8 km/h 11.1 km/h 54% 0.0 mm
09:29 26 °C 15.8 °C 1009.1 hPa SSO 7.6 km/h 11.1 km/h 53.5% 0.0 mm
09:34 26 °C 15.8 °C 1009.1 hPa SO 7.1 km/h 11.1 km/h 53.6% 0.0 mm
09:39 26.1 °C 15.8 °C 1009.1 hPa SO 6.9 km/h 10 km/h 53.2% 0.0 mm
09:44 26.1 °C 15.8 °C 1009.1 hPa SSO 6.1 km/h 11.1 km/h 53% 0.0 mm
09:49 26.2 °C 15.9 °C 1009.0 hPa SSO 5.8 km/h 11.1 km/h 53% 0.0 mm
09:54 26.3 °C 16 °C 1009.0 hPa SSO 6.6 km/h 11.1 km/h 53% 0.0 mm
09:59 26.6 °C 15.9 °C 1009.0 hPa SSO 6.9 km/h 11.1 km/h 52.1% 0.0 mm
10:04 26.7 °C 16 °C 1009.0 hPa SSO 6.1 km/h 9.5 km/h 51.7% 0.0 mm
10:09 26.9 °C 16 °C 1009.0 hPa SSO 5.8 km/h 11.9 km/h 51.4% 0.0 mm
10:14 27.1 °C 16.1 °C 1009.0 hPa SO 5.8 km/h 11.1 km/h 51% 0.0 mm
10:19 27.2 °C 16 °C 1009.0 hPa SO 5.8 km/h 10 km/h 50.4% 0.0 mm
10:24 27.3 °C 16 °C 1009.0 hPa SO 6.2 km/h 10 km/h 50% 0.0 mm
10:29 27.6 °C 16 °C 1009.0 hPa SSO 6.4 km/h 13 km/h 49.3% 0.0 mm
10:34 27.7 °C 16 °C 1008.8 hPa SSO 7.2 km/h 13 km/h 49% 0.0 mm
10:39 27.8 °C 16.1 °C 1008.8 hPa SO 7.6 km/h 11.1 km/h 49% 0.0 mm
10:44 28.1 °C 16.1 °C 1008.8 hPa SO 7.1 km/h 13 km/h 48.2% 0.0 mm
10:49 28.3 °C 16.2 °C 1008.5 hPa SO 6.9 km/h 13 km/h 48% 0.0 mm
10:54 28.6 °C 16.2 °C 1008.5 hPa SO 6.1 km/h 9.5 km/h 47% 0.0 mm
10:59 28.9 °C 16.3 °C 1008.5 hPa OSO 5.8 km/h 11.1 km/h 46.4% 0.0 mm
11:04 29.2 °C 16.3 °C 1008.5 hPa OSO 5.8 km/h 10 km/h 45.9% 0.0 mm
11:09 29.4 °C 16.1 °C 1008.5 hPa OSO 5.8 km/h 11.1 km/h 44.5% 0.0 mm
11:14 29.7 °C 16.1 °C 1008.5 hPa OSO 5.2 km/h 11.1 km/h 44% 0.0 mm
11:19 29.8 °C 16.1 °C 1008.4 hPa SO 5 km/h 11.1 km/h 43.8% 0.0 mm
11:24 29.9 °C 16 °C 1008.4 hPa OSO 5 km/h 11.9 km/h 43% 0.0 mm
11:29 30.3 °C 16 °C 1008.4 hPa Oeste 5 km/h 11.9 km/h 42% 0.0 mm
11:34 30.6 °C 16.2 °C 1008.3 hPa SO 5 km/h 12.2 km/h 42% 0.0 mm
11:39 30.8 °C 16 °C 1008.3 hPa OSO 5 km/h 13 km/h 40.8% 0.0 mm
11:44 31.1 °C 16.1 °C 1008.3 hPa SO 5.6 km/h 13 km/h 40.6% 0.0 mm
11:49 31.4 °C 16.2 °C 1008.1 hPa SSE 5.8 km/h 11.1 km/h 40% 0.0 mm
11:54 31.7 °C 16.1 °C 1008.1 hPa SSO 5 km/h 11.1 km/h 39.2% 0.0 mm
11:59 31.9 °C 16.2 °C 1008.1 hPa SSO 4.7 km/h 9.5 km/h 38.9% 0.0 mm
12:04 32.2 °C 16.2 °C 1008.1 hPa Sur 4.9 km/h 9.5 km/h 38.4% 0.0 mm
12:09 32.3 °C 16.2 °C 1008.1 hPa SSO 5 km/h 11.1 km/h 37.9% 0.0 mm
12:14 32.4 °C 16.1 °C 1008.1 hPa Sur 5.6 km/h 11.1 km/h 37.6% 0.0 mm
12:19 32.5 °C 15.9 °C 1007.9 hPa SO 5.8 km/h 9.5 km/h 37% 0.0 mm
12:24 32.7 °C 15.8 °C 1007.9 hPa OSO 5.2 km/h 7.4 km/h 36.4% 0.0 mm
12:29 33 °C 15.9 °C 1007.9 hPa SSO 5 km/h 10 km/h 36% 0.0 mm
12:34 33.3 °C 16.1 °C 1007.9 hPa SSO 5 km/h 9.3 km/h 35.8% 0.0 mm
12:39 33.3 °C 16 °C 1007.9 hPa SSO 5 km/h 11.9 km/h 35.4% 0.0 mm
12:44 33.4 °C 15.8 °C 1007.9 hPa ESE 6.2 km/h 9.3 km/h 35% 0.0 mm
12:49 33.7 °C 15.9 °C 1007.7 hPa SSE 6.4 km/h 11.1 km/h 34.7% 0.0 mm
12:54 33.7 °C 15.6 °C 1007.7 hPa Sur 5.4 km/h 9.3 km/h 33.9% 0.0 mm
12:59 33.8 °C 15.6 °C 1007.8 hPa SE 5 km/h 10 km/h 33.6% 0.0 mm
13:04 34.2 °C 15.2 °C 1007.8 hPa SE 5 km/h 9.3 km/h 32.2% 0.0 mm
13:09 34.6 °C 14.8 °C 1007.8 hPa ESE 5 km/h 10 km/h 30.7% 0.0 mm
13:14 34.9 °C 14 °C 1007.8 hPa ESE 5 km/h 7.6 km/h 28.7% 0.0 mm
13:19 35.3 °C 14.6 °C 1007.6 hPa SE 5 km/h 11.9 km/h 29.2% 0.0 mm
13:24 35.3 °C 14.2 °C 1007.6 hPa SO 5.6 km/h 13 km/h 28.2% 0.0 mm
13:29 35.2 °C 14.4 °C 1007.6 hPa SO 5.8 km/h 9.5 km/h 28.8% 0.0 mm
13:34 35.1 °C 14.4 °C 1007.4 hPa SO 5.2 km/h 9.3 km/h 29% 0.0 mm
13:39 35.3 °C 14.2 °C 1007.4 hPa SSE 5 km/h 11.1 km/h 28.4% 0.0 mm
13:44 35.5 °C 14.4 °C 1007.4 hPa Sur 5 km/h 9.5 km/h 28.4% 0.0 mm
13:49 35.7 °C 14.4 °C 1007.3 hPa SO 5 km/h 9.3 km/h 28% 0.0 mm
13:54 35.8 °C 14.1 °C 1007.3 hPa Oeste 5 km/h 9.5 km/h 27.3% 0.0 mm
13:59 36 °C 14.2 °C 1007.3 hPa ONO 5 km/h 7.6 km/h 27.2% 0.0 mm
14:04 36.3 °C 14.3 °C 1007.1 hPa Oeste 4.8 km/h 13 km/h 27% 0.0 mm
14:09 36.4 °C 14.4 °C 1007.1 hPa NO 4.7 km/h 11.1 km/h 27% 0.0 mm
14:14 36.7 °C 14.7 °C 1007.1 hPa North 4.9 km/h 9.5 km/h 27.1% 0.0 mm
14:19 37 °C 14.9 °C 1006.8 hPa ENE 5 km/h 7.4 km/h 27% 0.0 mm
14:24 37.3 °C 14.7 °C 1006.8 hPa ESE 4.8 km/h 11.1 km/h 26.1% 0.0 mm
14:29 37.4 °C 14.7 °C 1006.8 hPa ESE 4.7 km/h 13.7 km/h 26% 0.0 mm
14:34 37.2 °C 14.5 °C 1006.7 hPa SE 6.7 km/h 13 km/h 26.1% 0.0 mm
14:39 37 °C 14.3 °C 1006.7 hPa SSO 7.6 km/h 7.4 km/h 26% 0.0 mm
14:44 37 °C 14.6 °C 1006.7 hPa Este 5.5 km/h 7.4 km/h 26.5% 0.0 mm
14:49 37.3 °C 14.6 °C 1006.3 hPa NE 4.7 km/h 7.6 km/h 26.1% 0.0 mm
14:54 37.5 °C 14.5 °C 1006.3 hPa NNO 4.7 km/h 11.1 km/h 25.6% 0.0 mm
14:59 37.5 °C 14.2 °C 1006.3 hPa NO 4.7 km/h 11.1 km/h 25% 0.0 mm
15:04 37.6 °C 14.4 °C 1006.2 hPa NE 5.5 km/h 9.5 km/h 25.3% 0.0 mm
15:09 37.8 °C 14.4 °C 1006.2 hPa ONO 5.8 km/h 9.5 km/h 25% 0.0 mm
15:14 37.9 °C 14.5 °C 1006.2 hPa NO 5.2 km/h 11.9 km/h 25% 0.0 mm
15:19 38 °C 14.6 °C 1005.9 hPa North 5 km/h 11.9 km/h 25.1% 0.0 mm
15:24 38.1 °C 14.7 °C 1005.9 hPa NNE 6 km/h 9.3 km/h 25% 0.0 mm
15:29 38.3 °C 14.9 °C 1005.9 hPa NE 6.4 km/h 11.1 km/h 25.1% 0.0 mm
15:34 38.7 °C 15.1 °C 1005.8 hPa NE 5.4 km/h 8.7 km/h 24.9% 0.0 mm
15:39 38.9 °C 14.7 °C 1005.8 hPa ENE 5 km/h 11.1 km/h 24.1% 0.0 mm
15:44 38.8 °C 14.6 °C 1005.8 hPa NO 5 km/h 11.1 km/h 24% 0.0 mm
15:49 38.8 °C 14.7 °C 1005.5 hPa NE 5 km/h 12.2 km/h 24.1% 0.0 mm
15:54 38.5 °C 14.5 °C 1005.5 hPa Este 5.6 km/h 13 km/h 24.2% 0.0 mm
15:59 38.5 °C 14.7 °C 1005.5 hPa Este 5.8 km/h 11.9 km/h 24.7% 0.0 mm
16:04 38.7 °C 14.8 °C 1005.2 hPa NE 5.2 km/h 11.1 km/h 24.5% 0.0 mm
16:09 38.7 °C 14.7 °C 1005.2 hPa ENE 5 km/h 7.6 km/h 24.3% 0.0 mm
16:14 38.7 °C 14.9 °C 1005.3 hPa NE 5 km/h 7.6 km/h 24.7% 0.0 mm
16:19 38.8 °C 15 °C 1005.3 hPa NNE 5 km/h 11.9 km/h 24.5% 0.0 mm
16:24 38.9 °C 14.7 °C 1005.3 hPa NE 5 km/h 11.1 km/h 24.1% 0.0 mm
16:29 38.7 °C 16.3 °C 1005.3 hPa ENE 5 km/h 20.1 km/h 26.9% 0.0 mm
16:34 38.1 °C 16.9 °C 1005.0 hPa ESE 7.5 km/h 25.9 km/h 28.8% 0.0 mm
16:39 37.6 °C 16.7 °C 1005.0 hPa ESE 8.7 km/h 22.5 km/h 29.3% 0.0 mm
16:44 37.3 °C 16.9 °C 1005.0 hPa ESE 11.8 km/h 22.2 km/h 30% 0.0 mm
16:49 37.3 °C 16.8 °C 1005.0 hPa SE 13 km/h 18.5 km/h 30% 0.0 mm
16:54 37.4 °C 16.9 °C 1005.0 hPa SE 11.7 km/h 20.4 km/h 30% 0.0 mm
16:59 37.6 °C 17 °C 1005.0 hPa SE 11.1 km/h 20.4 km/h 30% 0.0 mm
17:04 37.5 °C 17 °C 1004.7 hPa SE 11.7 km/h 24.1 km/h 30% 0.0 mm
17:09 37.3 °C 17.2 °C 1004.7 hPa SE 11.9 km/h 20.4 km/h 30.8% 0.0 mm
17:14 37.3 °C 17.5 °C 1004.7 hPa SE 13.1 km/h 20.9 km/h 31.1% 0.0 mm
17:19 37.3 °C 17.4 °C 1004.5 hPa ESE 13.7 km/h 24.1 km/h 31% 0.0 mm
17:24 37.2 °C 17.6 °C 1004.5 hPa SE 12.4 km/h 20.9 km/h 31.8% 0.0 mm
17:29 37.2 °C 17.7 °C 1004.5 hPa SE 11.9 km/h 22.2 km/h 32% 0.0 mm
17:34 37 °C 17.7 °C 1004.5 hPa ESE 11.9 km/h 20.4 km/h 32.2% 0.0 mm
17:39 36.9 °C 18 °C 1004.5 hPa SE 11.9 km/h 20.4 km/h 33% 0.0 mm
17:44 36.8 °C 17.9 °C 1004.5 hPa SE 11.3 km/h 20.9 km/h 33% 0.0 mm
17:49 36.8 °C 17.9 °C 1004.4 hPa SE 11.1 km/h 17.2 km/h 33% 0.0 mm
17:54 36.9 °C 18 °C 1004.4 hPa ESE 10.4 km/h 19 km/h 33% 0.0 mm
17:59 36.8 °C 17.9 °C 1004.4 hPa SE 10.3 km/h 22.2 km/h 33% 0.0 mm
18:04 36.7 °C 18.2 °C 1004.4 hPa ESE 11.8 km/h 20.4 km/h 33.9% 0.0 mm
18:09 36.7 °C 18.3 °C 1004.4 hPa ESE 12.2 km/h 18.5 km/h 34% 0.0 mm
18:14 36.8 °C 18.2 °C 1004.4 hPa ESE 10.7 km/h 23.3 km/h 33.7% 0.0 mm
18:19 36.7 °C 18.3 °C 1004.1 hPa ESE 10 km/h 24.5 km/h 34.1% 0.0 mm
18:24 36.4 °C 18.1 °C 1004.1 hPa ESE 12.8 km/h 18.5 km/h 34.2% 0.0 mm
18:29 36.5 °C 18.1 °C 1004.2 hPa ESE 14 km/h 17.2 km/h 34% 0.0 mm
18:34 36.5 °C 18.4 °C 1004.2 hPa ESE 12 km/h 18.5 km/h 34.6% 0.0 mm
18:39 36.4 °C 18.5 °C 1004.2 hPa ESE 11.1 km/h 25.9 km/h 35% 0.0 mm
18:44 36.2 °C 18.4 °C 1004.3 hPa ESE 13.2 km/h 24.1 km/h 35.2% 0.0 mm
18:49 36.2 °C 18.5 °C 1004.3 hPa Este 14 km/h 20.4 km/h 35.3% 0.0 mm
18:54 36.2 °C 18.5 °C 1004.3 hPa ESE 12.6 km/h 20.4 km/h 35.4% 0.0 mm
18:59 36.1 °C 18.7 °C 1004.3 hPa ESE 11.9 km/h 22.2 km/h 36% 0.0 mm
19:04 36.1 °C 18.5 °C 1004.3 hPa ESE 12.2 km/h 18.5 km/h 35.6% 0.0 mm
19:09 36.1 °C 18.6 °C 1004.3 hPa SE 12.2 km/h 18.5 km/h 35.9% 0.0 mm
19:14 36.2 °C 18.8 °C 1004.3 hPa ESE 10.9 km/h 18.5 km/h 36% 0.0 mm
19:19 36 °C 18.7 °C 1004.3 hPa ESE 10.3 km/h 18.5 km/h 36.3% 0.0 mm
19:24 35.9 °C 18.9 °C 1004.3 hPa ESE 10.8 km/h 16.7 km/h 37% 0.0 mm
19:29 35.8 °C 18.9 °C 1004.3 hPa ESE 11.1 km/h 17.2 km/h 37% 0.0 mm
19:34 35.8 °C 18.8 °C 1004.1 hPa ESE 10 km/h 16.7 km/h 37% 0.0 mm
19:39 35.6 °C 18.9 °C 1004.1 hPa ESE 9.5 km/h 16.7 km/h 37.5% 0.0 mm
19:44 35.5 °C 19 °C 1004.1 hPa ESE 9.8 km/h 17.2 km/h 38% 0.0 mm
19:49 35.5 °C 19 °C 1003.8 hPa ESE 10 km/h 14.8 km/h 38% 0.0 mm
19:54 35.5 °C 19 °C 1003.8 hPa ESE 9.6 km/h 17.2 km/h 38% 0.0 mm
19:59 35.4 °C 19.2 °C 1003.9 hPa ESE 9.5 km/h 17.2 km/h 38.8% 0.0 mm
20:04 35.2 °C 19.3 °C 1003.9 hPa ESE 9.5 km/h 17.2 km/h 39.4% 0.0 mm
20:09 34.9 °C 19.3 °C 1003.9 hPa ESE 9.5 km/h 16.7 km/h 40% 0.0 mm
20:14 34.7 °C 19.5 °C 1004.0 hPa ESE 8.9 km/h 14.8 km/h 41% 0.0 mm
20:19 34.7 °C 19.5 °C 1004.0 hPa ESE 8.7 km/h 11.9 km/h 41% 0.0 mm
20:24 34.5 °C 19.6 °C 1004.0 hPa SE 7.1 km/h 13.7 km/h 41.5% 0.0 mm
20:29 34.3 °C 19.6 °C 1004.0 hPa Este 6.4 km/h 13 km/h 42% 0.0 mm
20:34 34.2 °C 19.4 °C 1004.1 hPa NNE 6.4 km/h 15.6 km/h 42% 0.0 mm
20:39 33.7 °C 19.3 °C 1004.1 hPa NNE 6.4 km/h 16.7 km/h 42.9% 0.0 mm
20:44 33.2 °C 19.4 °C 1004.3 hPa NNE 8.9 km/h 17.2 km/h 44.3% 0.0 mm
20:49 32.9 °C 19.5 °C 1004.3 hPa NNE 10 km/h 14.8 km/h 45.3% 0.0 mm
20:54 32.7 °C 19.7 °C 1004.3 hPa NNE 8.3 km/h 19 km/h 46.4% 0.0 mm
20:59 32.4 °C 19.8 °C 1004.5 hPa NNE 7.6 km/h 14.8 km/h 47.5% 0.0 mm
21:04 32.1 °C 19.8 °C 1004.5 hPa NNE 8.4 km/h 13.7 km/h 48.3% 0.0 mm
21:09 31.9 °C 19.9 °C 1004.5 hPa NNE 8.7 km/h 16.7 km/h 49.2% 0.0 mm
21:14 31.7 °C 20 °C 1004.8 hPa NE 8.7 km/h 14.8 km/h 50% 0.0 mm
21:19 31.6 °C 20 °C 1004.8 hPa NE 8.7 km/h 12.2 km/h 50.4% 0.0 mm
21:24 31.5 °C 20.1 °C 1004.8 hPa NNE 7.9 km/h 13 km/h 51% 0.0 mm
21:29 31.4 °C 20.2 °C 1005.0 hPa NNE 7.6 km/h 13 km/h 51.5% 0.0 mm
21:34 31.3 °C 20.4 °C 1005.0 hPa NNE 7.1 km/h 13 km/h 52.3% 0.0 mm
21:39 31.2 °C 20.5 °C 1005.0 hPa NE 6.9 km/h 11.9 km/h 53% 0.0 mm
21:44 31 °C 20.6 °C 1005.1 hPa North 6.6 km/h 13.7 km/h 53.9% 0.0 mm
21:49 30.9 °C 20.7 °C 1005.1 hPa NNO 6.4 km/h 13 km/h 54.5% 0.0 mm
21:54 30.8 °C 20.7 °C 1005.1 hPa NNE 6 km/h 13 km/h 55% 0.0 mm
21:59 30.7 °C 20.7 °C 1005.4 hPa NO 5.8 km/h 7.6 km/h 55.2% 0.0 mm
22:04 30.7 °C 20.9 °C 1005.4 hPa NO 4.4 km/h 8.4 km/h 56% 0.0 mm
22:09 30.6 °C 21 °C 1005.4 hPa NNE 3.9 km/h 11.1 km/h 56.7% 0.0 mm
22:14 30.4 °C 21 °C 1005.6 hPa NE 4.7 km/h 10 km/h 57% 0.0 mm
22:19 30.3 °C 20.8 °C 1005.6 hPa NE 5 km/h 9.3 km/h 57% 0.0 mm
22:24 30.3 °C 20.8 °C 1005.6 hPa NE 4.8 km/h 3.7 km/h 57% 0.0 mm
22:29 30.3 °C 20.8 °C 1005.8 hPa NE 4.7 km/h   57% 0.0 mm
22:34 30.3 °C 20.8 °C 1005.8 hPa NE 1.4 km/h 6.4 km/h 57% 0.0 mm
22:39 30.3 °C 20.8 °C 1005.8 hPa Calm   7.4 km/h 57% 0.0 mm
22:44 30.4 °C 20.9 °C 1006.1 hPa ESE 2.2 km/h 10.3 km/h 56.9% 0.0 mm
22:49 30.4 °C 20.6 °C 1006.1 hPa SE 3.2 km/h 11.1 km/h 56% 0.0 mm
22:54 30.4 °C 20.6 °C 1006.1 hPa SE 5.4 km/h 10 km/h 56% 0.0 mm
22:59 30.4 °C 20.5 °C 1006.1 hPa ESE 6.4 km/h 9.5 km/h 55.5% 0.0 mm
23:04 30.4 °C 20.9 °C 1006.0 hPa ESE 5.1 km/h 5.6 km/h 56.8% 0.0 mm
23:09 30.5 °C 21.1 °C 1006.0 hPa ESE 4.7 km/h 5.6 km/h 57.4% 0.0 mm
23:14 30.5 °C 21.1 °C 1006.2 hPa ESE 2.9 km/h 8.4 km/h 57.3% 0.0 mm
23:19 30.4 °C 21 °C 1006.2 hPa SSE 2.3 km/h 7.6 km/h 57.2% 0.0 mm
23:24 30.3 °C 21.1 °C 1006.2 hPa SSE 2.9 km/h 3.7 km/h 58% 0.0 mm
23:29 30.3 °C 21.1 °C 1006.3 hPa SSE 3.2 km/h 3.7 km/h 58% 0.0 mm
23:34 30.3 °C 21.2 °C 1006.3 hPa SSE 1 km/h 3.9 km/h 58.2% 0.0 mm
23:39 30.3 °C 21.2 °C 1006.3 hPa Calm   7.4 km/h 58.3% 0.0 mm
23:44 30.2 °C 21.2 °C 1006.4 hPa ONO 2 km/h 10.3 km/h 58.5% 0.0 mm
23:49 30 °C 21.5 °C 1006.4 hPa ONO 2.9 km/h 11.9 km/h 60.6% 0.0 mm
23:54 29.7 °C 21.7 °C 1006.4 hPa ONO 4.9 km/h 10.3 km/h 62.1% 0.0 mm
23:59 29.4 °C 21.7 °C 1006.5 hPa ONO 5.8 km/h 11.1 km/h 63.3% 0.0 mm
Murcia-Puente Tocinos, Espa?a
Compliments of Weather Underground - 3 mb

La estación de MeteoMurcia.com, publica sus datos en los siguientes proyectos:

Weather Underground PWS IMURCIAP2 Meteoclimatic www.awekas.at

Web Analytics

Clicky